Latest Weather Observations for Fawkner Beacon

IDV60901

Issued at 2:01 am EST Saturday 29 April 2017 (issued every 10 minutes, with the page automatically refreshed every 10 minutes)

About weather observations | Map of Melbourne area stations | Latest observations for Melbourne area | Other Formats
Station Details ID: 086376 Name: FAWKNER BEACON Lat: -37.91 Lon: 144.93 Height: 17.0 m
Data from the previous 72 hours. | See also: Recent months for locations in Victoria
Date/Time
EST
Temp
°C
App
Temp
°C
Dew
Point
°C
Rel
Hum
%
Delta-T
°C
Wind Press
QNH
hPa
Press
MSL
hPa
Rain since
9am
mm
Dir  Spd
km/h
Gust
km/h
Spd
kts
Gust
kts
29/02:00am - - - - - W 24 30 13 16 - - -
29/01:30am - - - - - W 24 32 13 17 - - -
29/01:00am - - - - - WNW 26 32 14 17 - - -
29/12:30am - - - - - W 26 32 14 17 - - -
29/12:00am - - - - - W 28 35 15 19 - - -
 
Date/Time
EST
Temp
°C
App
Temp
°C
Dew
Point
°C
Rel
Hum
%
Delta-T
°C
Wind Press
QNH
hPa
Press
MSL
hPa
Rain since
9am
mm
Dir  Spd
km/h
Gust
km/h
Spd
kts
Gust
kts
28/11:30pm - - - - - W 30 39 16 21 - - -
28/11:00pm - - - - - W 26 33 14 18 - - -
28/10:30pm - - - - - W 33 43 18 23 - - -
28/10:00pm - - - - - W 33 41 18 22 - - -
28/09:30pm - - - - - W 30 39 16 21 - - -
28/09:00pm - - - - - W 26 32 14 17 - - -
28/08:30pm - - - - - W 24 26 13 14 - - -
28/08:00pm - - - - - WSW 32 39 17 21 - - -
28/07:30pm - - - - - W 26 30 14 16 - - -
28/07:00pm - - - - - W 28 33 15 18 - - -
28/06:30pm - - - - - W 26 30 14 16 - - -
28/06:00pm - - - - - W 24 32 13 17 - - -
28/05:30pm - - - - - W 24 30 13 16 - - -
28/05:00pm - - - - - W 19 22 10 12 - - -
28/04:30pm - - - - - W 19 24 10 13 - - -
28/04:00pm - - - - - W 22 28 12 15 - - -
28/03:30pm - - - - - W 20 24 11 13 - - -
28/03:00pm - - - - - W 20 26 11 14 - - -
28/02:30pm - - - - - WSW 20 24 11 13 - - -
28/02:00pm - - - - - W 22 28 12 15 - - -
28/01:30pm - - - - - W 24 30 13 16 - - -
28/01:00pm - - - - - W 24 28 13 15 - - -
28/12:30pm - - - - - WSW 22 28 12 15 - - -
28/12:00pm - - - - - W 7 9 4 5 - - -
28/11:30am - - - - - W 13 17 7 9 - - -
28/11:00am - - - - - WNW 15 17 8 9 - - -
28/10:30am - - - - - WNW 15 22 8 12 - - -
28/10:00am - - - - - WNW 19 22 10 12 - - -
28/09:30am - - - - - WNW 15 20 8 11 - - -
28/09:00am - - - - - WNW 20 24 11 13 - - -
28/08:30am - - - - - WNW 24 26 13 14 - - -
28/08:00am - - - - - WNW 20 24 11 13 - - -
28/07:30am - - - - - WNW 22 26 12 14 - - -
28/07:00am - - - - - WNW 24 28 13 15 - - -
28/06:30am - - - - - WNW 26 30 14 16 - - -
28/06:00am - - - - - WNW 28 33 15 18 - - -
28/05:30am - - - - - WNW 26 32 14 17 - - -
28/05:00am - - - - - WNW 28 33 15 18 - - -
28/04:30am - - - - - WNW 28 32 15 17 - - -
28/04:00am - - - - - WNW 26 30 14 16 - - -
28/03:30am - - - - - W 24 28 13 15 - - -
28/03:00am - - - - - WNW 24 28 13 15 - - -
28/02:30am - - - - - W 22 28 12 15 - - -
28/02:00am - - - - - W 24 28 13 15 - - -
28/01:30am - - - - - WNW 26 33 14 18 - - -
28/01:00am - - - - - WNW 28 33 15 18 - - -
28/12:30am - - - - - WNW 26 30 14 16 - - -
28/12:00am - - - - - WNW 22 28 12 15 - - -
 
Date/Time
EST
Temp
°C
App
Temp
°C
Dew
Point
°C
Rel
Hum
%
Delta-T
°C
Wind Press
QNH
hPa
Press
MSL
hPa
Rain since
9am
mm
Dir  Spd
km/h
Gust
km/h
Spd
kts
Gust
kts
27/11:30pm - - - - - WNW 26 32 14 17 - - -
27/11:00pm - - - - - WNW 22 28 12 15 - - -
27/10:30pm - - - - - WNW 20 26 11 14 - - -
27/10:00pm - - - - - WNW 19 24 10 13 - - -
27/09:30pm - - - - - WNW 17 20 9 11 - - -
27/09:00pm - - - - - WNW 15 22 8 12 - - -
27/08:30pm - - - - - WNW 13 20 7 11 - - -
27/08:00pm - - - - - WNW 15 20 8 11 - - -
27/07:30pm - - - - - WNW 13 20 7 11 - - -
27/07:00pm - - - - - W 13 17 7 9 - - -
27/06:30pm - - - - - W 13 17 7 9 - - -
27/06:00pm - - - - - WNW 13 22 7 12 - - -
27/05:30pm - - - - - N 4 15 2 8 - - -
27/05:00pm - - - - - W 2 6 1 3 - - -
27/04:30pm - - - - - WSW 13 22 7 12 - - -
27/04:00pm - - - - - SW 15 20 8 11 - - -
27/03:30pm - - - - - SSW 20 28 11 15 - - -
27/03:00pm - - - - - SW 28 35 15 19 - - -
27/02:30pm - - - - - SW 20 26 11 14 - - -
27/02:00pm - - - - - SW 24 32 13 17 - - -
27/01:30pm - - - - - WSW 24 32 13 17 - - -
27/01:00pm - - - - - WSW 26 35 14 19 - - -
27/12:30pm - - - - - WSW 26 33 14 18 - - -
27/12:00pm - - - - - SW 33 39 18 21 - - -
27/11:30am - - - - - WSW 41 50 22 27 - - -
27/11:00am - - - - - SW 28 33 15 18 - - -
27/10:30am - - - - - SW 30 39 16 21 - - -
27/10:00am - - - - - WSW 30 39 16 21 - - -
27/09:30am - - - - - SW 35 44 19 24 - - -
27/09:00am - - - - - SW 33 41 18 22 - - -
27/08:30am - - - - - WSW 35 43 19 23 - - -
27/08:03am - - - - - SSW 28 44 15 24 - - -
27/08:00am - - - - - S 22 33 12 18 - - -
27/07:30am - - - - - SW 33 43 18 23 - - -
27/07:00am - - - - - SSW 22 35 12 19 - - -
27/06:30am - - - - - SSW 28 41 15 22 - - -
27/06:23am - - - - - SSE 26 41 14 22 - - -
27/06:00am - - - - - SSE 37 50 20 27 - - -
27/05:50am - - - - - SSE 33 46 18 25 - - -
27/05:30am - - - - - S 26 32 14 17 - - -
27/05:00am - - - - - SSW 26 32 14 17 - - -
27/04:30am - - - - - SSE 44 59 24 32 - - -
27/04:20am - - - - - S 35 57 19 31 - - -
27/04:00am - - - - - S 37 48 20 26 - - -
27/03:30am - - - - - S 30 43 16 23 - - -
27/03:28am - - - - - S 30 43 16 23 - - -
27/03:15am - - - - - S 41 50 22 27 - - -
27/03:00am - - - - - SSE 37 46 20 25 - - -
27/02:30am - - - - - SSE 35 44 19 24 - - -
27/02:00am - - - - - SSE 44 50 24 27 - - -
27/01:50am - - - - - S 35 50 19 27 - - -
27/01:47am - - - - - S 32 50 17 27 - - -
27/01:30am - - - - - S 33 43 18 23 - - -
27/01:00am - - - - - SSE 46 54 25 29 - - -
27/12:30am - - - - - S 41 48 22 26 - - -
27/12:00am - - - - - SSW 43 52 23 28 - - -
 
Date/Time
EST
Temp
°C
App
Temp
°C
Dew
Point
°C
Rel
Hum
%
Delta-T
°C
Wind Press
QNH
hPa
Press
MSL
hPa
Rain since
9am
mm
Dir  Spd
km/h
Gust
km/h
Spd
kts
Gust
kts
26/11:30pm - - - - - SSW 39 46 21 25 - - -
26/11:23pm - - - - - S 39 46 21 25 - - -
26/11:00pm - - - - - S 43 50 23 27 - - -
26/10:57pm - - - - - S 41 50 22 27 - - -
26/10:40pm - - - - - SSW 35 54 19 29 - - -
26/10:30pm - - - - - SSW 39 48 21 26 - - -
26/10:24pm - - - - - SSW 39 50 21 27 - - -
26/10:00pm - - - - - S 43 50 23 27 - - -
26/09:55pm - - - - - SSW 37 48 20 26 - - -
26/09:30pm - - - - - SW 35 50 19 27 - - -
26/09:00pm - - - - - SW 39 48 21 26 - - -
26/08:31pm - - - - - SW 39 57 21 31 - - -
26/08:30pm - - - - - SW 41 57 22 31 - - -
26/08:11pm - - - - - SW 33 52 18 28 - - -
26/08:00pm - - - - - SW 32 48 17 26 - - -
26/07:43pm - - - - - SW 39 57 21 31 - - -
26/07:30pm - - - - - SSW 39 48 21 26 - - -
26/07:04pm - - - - - SSW 52 69 28 37 - - -
26/07:00pm - - - - - SW 48 69 26 37 - - -
26/06:57pm - - - - - SW 46 65 25 35 - - -
26/06:30pm - - - - - SW 41 48 22 26 - - -
26/06:03pm - - - - - SW 43 61 23 33 - - -
26/06:00pm - - - - - SW 44 61 24 33 - - -
26/05:54pm - - - - - SSW 46 63 25 34 - - -
26/05:30pm - - - - - S 41 52 22 28 - - -
26/05:19pm - - - - - SSW 50 67 27 36 - - -
26/05:14pm - - - - - SSW 46 67 25 36 - - -
26/05:11pm - - - - - SSW 41 61 22 33 - - -
26/05:00pm - - - - - SW 46 54 25 29 - - -
26/04:30pm - - - - - SSW 46 61 25 33 - - -
26/04:20pm - - - - - SSW 46 65 25 35 - - -
26/04:00pm - - - - - SSW 44 59 24 32 - - -
26/03:30pm - - - - - SW 52 67 28 36 - - -
26/03:14pm - - - - - SW 57 72 31 39 - - -
26/03:04pm - - - - - SSW 52 76 28 41 - - -
26/03:02pm - - - - - SSW 44 65 24 35 - - -
26/03:00pm - - - - - SSW 43 59 23 32 - - -
26/02:39pm - - - - - SSW 48 67 26 36 - - -
26/02:30pm - - - - - SSW 50 63 27 34 - - -
26/02:00pm - - - - - SSW 44 57 24 31 - - -
26/01:30pm - - - - - SSW 56 67 30 36 - - -
26/01:00pm - - - - - SSW 52 61 28 33 - - -
26/12:36pm - - - - - SSW 61 80 33 43 - - -
26/12:30pm - - - - - SSW 54 72 29 39 - - -
26/12:13pm - - - - - SSW 44 69 24 37 - - -
26/12:06pm - - - - - SSW 61 80 33 43 - - -
26/12:00pm - - - - - SSW 67 80 36 43 - - -
26/11:57am - - - - - SSW 65 80 35 43 - - -
26/11:49am - - - - - SSW 50 70 27 38 - - -
26/11:30am - - - - - S 46 57 25 31 - - -
26/11:00am - - - - - S 54 65 29 35 - - -
26/10:30am - - - - - SSW 56 69 30 37 - - -
26/10:00am - - - - - SSW 52 61 28 33 - - -
26/09:30am - - - - - SSW 54 65 29 35 - - -
26/09:00am - - - - - S 56 67 30 36 - - -
26/08:30am - - - - - SSW 56 65 30 35 - - -
26/08:00am - - - - - SSW 50 61 27 33 - - -
26/07:50am - - - - - SW 41 54 22 29 - - -
26/07:43am - - - - - SW 43 54 23 29 - - -
26/07:30am - - - - - SSW 48 63 26 34 - - -
26/07:14am - - - - - SSW 37 48 20 26 - - -
26/07:00am - - - - - WSW 28 46 15 25 - - -
26/06:57am - - - - - SW 35 59 19 32 - - -
26/06:52am - - - - - SW 41 59 22 32 - - -
26/06:49am - - - - - SW 39 59 21 32 - - -
26/06:44am - - - - - WSW 35 59 19 32 - - -
26/06:30am - - - - - SW 28 33 15 18 - - -
26/06:00am - - - - - SW 39 48 21 26 - - -
26/05:30am - - - - - SW 37 46 20 25 - - -
26/05:00am - - - - - SW 46 57 25 31 - - -
26/04:30am - - - - - SW 54 69 29 37 - - -
26/04:07am - - - - - SW 54 78 29 42 - - -
26/04:00am - - - - - SSW 54 67 29 36 - - -
26/03:42am - - - - - SSW 48 67 26 36 - - -
26/03:30am - - - - - SW 46 54 25 29 - - -
26/03:24am - - - - - WSW 43 54 23 29 - - -
26/03:17am - - - - - NW 26 48 14 26 - - -
26/03:00am - - - - - NNW 24 30 13 16 - - -
26/02:30am - - - - - NNW 26 32 14 17 - - -

Latest Capital City Observations: Canberra | Sydney | Melbourne | Brisbane | Adelaide | Perth | Hobart | Darwin

Other Formats:

Comma delimited format used in spreadsheet applications
http://www.bom.gov.au/fwo/IDV60901/IDV60901.95872.axf

JavaScript Object Notation format (JSON) in row-major order
http://www.bom.gov.au/fwo/IDV60901/IDV60901.95872.json